sensor_id;sensor_type;location;lat;lon;timestamp;temperature;humidity
5286;DHT22;2665;53.112;7.358;2022-12-11T00:00:51;-1.00;99.90
5286;DHT22;2665;53.112;7.358;2022-12-11T00:03:17;-1.10;99.90
5286;DHT22;2665;53.112;7.358;2022-12-11T00:05:43;-1.10;99.90
5286;DHT22;2665;53.112;7.358;2022-12-11T00:08:10;-1.10;99.90
5286;DHT22;2665;53.112;7.358;2022-12-11T00:10:35;-1.20;99.90
5286;DHT22;2665;53.112;7.358;2022-12-11T00:13:01;-1.20;99.90
5286;DHT22;2665;53.112;7.358;2022-12-11T00:15:27;-1.10;99.90
5286;DHT22;2665;53.112;7.358;2022-12-11T00:17:53;-1.10;99.90
5286;DHT22;2665;53.112;7.358;2022-12-11T00:20:19;-1.10;99.90
5286;DHT22;2665;53.112;7.358;2022-12-11T00:22:44;-1.10;99.90
5286;DHT22;2665;53.112;7.358;2022-12-11T00:25:10;-1.10;99.90
5286;DHT22;2665;53.112;7.358;2022-12-11T00:27:35;-1.10;99.90
5286;DHT22;2665;53.112;7.358;2022-12-11T00:30:01;-1.10;99.90
5286;DHT22;2665;53.112;7.358;2022-12-11T00:32:27;-1.10;99.90
5286;DHT22;2665;53.112;7.358;2022-12-11T00:34:52;-1.10;99.90
5286;DHT22;2665;53.112;7.358;2022-12-11T00:37:18;-1.10;99.90
5286;DHT22;2665;53.112;7.358;2022-12-11T00:39:44;-1.10;99.90
5286;DHT22;2665;53.112;7.358;2022-12-11T00:42:09;-1.20;99.90
5286;DHT22;2665;53.112;7.358;2022-12-11T00:44:35;-1.20;99.90
5286;DHT22;2665;53.112;7.358;2022-12-11T00:47:01;-1.20;99.90
5286;DHT22;2665;53.112;7.358;2022-12-11T00:49:27;-1.20;99.90
5286;DHT22;2665;53.112;7.358;2022-12-11T00:51:52;-1.10;99.90
5286;DHT22;2665;53.112;7.358;2022-12-11T00:54:18;-1.10;99.90
5286;DHT22;2665;53.112;7.358;2022-12-11T00:56:43;-1.10;99.90
5286;DHT22;2665;53.112;7.358;2022-12-11T00:59:09;-1.10;99.90
5286;DHT22;2665;53.112;7.358;2022-12-11T01:01:35;-1.10;99.90
5286;DHT22;2665;53.112;7.358;2022-12-11T01:04:00;-1.20;99.90
5286;DHT22;2665;53.112;7.358;2022-12-11T01:06:27;-1.10;99.90
5286;DHT22;2665;53.112;7.358;2022-12-11T01:08:54;-1.10;99.90
5286;DHT22;2665;53.112;7.358;2022-12-11T01:11:41;-1.10;1.00
5286;DHT22;2665;53.112;7.358;2022-12-11T01:14:08;-1.10;99.90
5286;DHT22;2665;53.112;7.358;2022-12-11T01:16:33;-1.10;99.90
5286;DHT22;2665;53.112;7.358;2022-12-11T01:18:59;-1.10;99.90
5286;DHT22;2665;53.112;7.358;2022-12-11T01:21:25;-1.10;99.90
5286;DHT22;2665;53.112;7.358;2022-12-11T01:23:51;-1.10;1.00
5286;DHT22;2665;53.112;7.358;2022-12-11T01:26:17;-1.10;99.90
5286;DHT22;2665;53.112;7.358;2022-12-11T01:28:43;-1.20;99.90
5286;DHT22;2665;53.112;7.358;2022-12-11T01:31:13;-1.20;99.90
5286;DHT22;2665;53.112;7.358;2022-12-11T01:33:40;-1.20;99.90
5286;DHT22;2665;53.112;7.358;2022-12-11T01:36:12;-1.20;1.00
5286;DHT22;2665;53.112;7.358;2022-12-11T01:38:38;-1.20;1.00
5286;DHT22;2665;53.112;7.358;2022-12-11T01:41:04;-1.20;1.00
5286;DHT22;2665;53.112;7.358;2022-12-11T01:43:30;-1.20;1.00
5286;DHT22;2665;53.112;7.358;2022-12-11T01:45:56;-1.20;1.00
5286;DHT22;2665;53.112;7.358;2022-12-11T01:48:26;-1.20;1.00
5286;DHT22;2665;53.112;7.358;2022-12-11T01:50:58;-1.20;1.00
5286;DHT22;2665;53.112;7.358;2022-12-11T01:53:30;-1.20;1.00
5286;DHT22;2665;53.112;7.358;2022-12-11T01:55:57;-1.20;1.00
5286;DHT22;2665;53.112;7.358;2022-12-11T01:58:28;-1.20;1.00
5286;DHT22;2665;53.112;7.358;2022-12-11T02:00:56;-1.20;1.00
5286;DHT22;2665;53.112;7.358;2022-12-11T02:03:23;-1.20;1.00
5286;DHT22;2665;53.112;7.358;2022-12-11T02:05:49;-1.30;99.90
5286;DHT22;2665;53.112;7.358;2022-12-11T02:08:15;-1.30;99.90
5286;DHT22;2665;53.112;7.358;2022-12-11T02:10:48;-1.40;99.90
5286;DHT22;2665;53.112;7.358;2022-12-11T02:16:09;-1.40;99.90
5286;DHT22;2665;53.112;7.358;2022-12-11T02:21:48;-1.30;1.00
5286;DHT22;2665;53.112;7.358;2022-12-11T02:29:38;-1.30;1.00
5286;DHT22;2665;53.112;7.358;2022-12-11T02:32:14;-1.30;1.00
5286;DHT22;2665;53.112;7.358;2022-12-11T02:35:16;-1.30;1.00
5286;DHT22;2665;53.112;7.358;2022-12-11T02:37:46;-1.30;1.00
5286;DHT22;2665;53.112;7.358;2022-12-11T02:40:15;-1.30;1.00
5286;DHT22;2665;53.112;7.358;2022-12-11T02:42:45;-1.30;1.00
5286;DHT22;2665;53.112;7.358;2022-12-11T02:45:13;-1.20;1.00
5286;DHT22;2665;53.112;7.358;2022-12-11T02:47:40;-1.20;1.00
5286;DHT22;2665;53.112;7.358;2022-12-11T02:50:10;-1.20;1.00
5286;DHT22;2665;53.112;7.358;2022-12-11T02:52:38;-1.20;1.00
5286;DHT22;2665;53.112;7.358;2022-12-11T02:55:06;-1.10;1.00
5286;DHT22;2665;53.112;7.358;2022-12-11T02:57:47;-1.10;1.00
5286;DHT22;2665;53.112;7.358;2022-12-11T03:00:13;-1.10;1.00
5286;DHT22;2665;53.112;7.358;2022-12-11T03:02:41;-1.10;1.00
5286;DHT22;2665;53.112;7.358;2022-12-11T03:05:08;-1.00;1.00
5286;DHT22;2665;53.112;7.358;2022-12-11T03:07:38;-1.10;1.00
5286;DHT22;2665;53.112;7.358;2022-12-11T03:10:07;-1.00;1.00
5286;DHT22;2665;53.112;7.358;2022-12-11T03:12:38;-1.00;1.00
5286;DHT22;2665;53.112;7.358;2022-12-11T03:15:08;-1.00;1.00
5286;DHT22;2665;53.112;7.358;2022-12-11T03:18:28;-1.00;1.00
5286;DHT22;2665;53.112;7.358;2022-12-11T03:20:38;-1.00;1.00
5286;DHT22;2665;53.112;7.358;2022-12-11T03:25:55;-1.00;1.00
5286;DHT22;2665;53.112;7.358;2022-12-11T03:28:44;-1.00;1.00
5286;DHT22;2665;53.112;7.358;2022-12-11T03:31:24;-1.00;99.90
5286;DHT22;2665;53.112;7.358;2022-12-11T03:33:53;-1.00;1.00
5286;DHT22;2665;53.112;7.358;2022-12-11T03:36:24;-1.00;1.00
5286;DHT22;2665;53.112;7.358;2022-12-11T03:38:57;-0.90;1.00
5286;DHT22;2665;53.112;7.358;2022-12-11T03:41:25;-0.90;1.00
5286;DHT22;2665;53.112;7.358;2022-12-11T03:43:54;-0.90;1.00
5286;DHT22;2665;53.112;7.358;2022-12-11T03:46:24;-0.90;1.00
5286;DHT22;2665;53.112;7.358;2022-12-11T03:48:52;-0.90;1.00
5286;DHT22;2665;53.112;7.358;2022-12-11T03:51:21;-0.90;1.00
5286;DHT22;2665;53.112;7.358;2022-12-11T03:53:49;-0.90;1.00
5286;DHT22;2665;53.112;7.358;2022-12-11T03:56:16;-0.80;1.00
5286;DHT22;2665;53.112;7.358;2022-12-11T03:58:42;-0.80;1.00
5286;DHT22;2665;53.112;7.358;2022-12-11T04:01:10;-0.80;1.00
5286;DHT22;2665;53.112;7.358;2022-12-11T04:03:36;-0.80;99.90
5286;DHT22;2665;53.112;7.358;2022-12-11T04:06:02;-0.80;99.90
5286;DHT22;2665;53.112;7.358;2022-12-11T04:08:28;-0.70;1.00
5286;DHT22;2665;53.112;7.358;2022-12-11T04:10:53;-0.70;1.00
5286;DHT22;2665;53.112;7.358;2022-12-11T04:13:38;-0.70;1.00
5286;DHT22;2665;53.112;7.358;2022-12-11T04:16:04;-0.70;1.00
5286;DHT22;2665;53.112;7.358;2022-12-11T04:18:30;-0.70;1.00
5286;DHT22;2665;53.112;7.358;2022-12-11T04:21:14;-0.70;99.90
5286;DHT22;2665;53.112;7.358;2022-12-11T04:23:58;-0.70;99.90
5286;DHT22;2665;53.112;7.358;2022-12-11T04:26:45;-0.70;1.00
5286;DHT22;2665;53.112;7.358;2022-12-11T04:29:12;-0.70;1.00
5286;DHT22;2665;53.112;7.358;2022-12-11T04:31:38;-0.70;1.00
5286;DHT22;2665;53.112;7.358;2022-12-11T04:34:04;-0.70;99.90
5286;DHT22;2665;53.112;7.358;2022-12-11T04:36:30;-0.70;1.00
5286;DHT22;2665;53.112;7.358;2022-12-11T04:38:56;-0.70;1.00
5286;DHT22;2665;53.112;7.358;2022-12-11T04:41:21;-0.70;1.00
5286;DHT22;2665;53.112;7.358;2022-12-11T04:43:47;-0.70;99.90
5286;DHT22;2665;53.112;7.358;2022-12-11T04:46:15;-0.70;99.90
5286;DHT22;2665;53.112;7.358;2022-12-11T04:48:41;-0.70;99.90
5286;DHT22;2665;53.112;7.358;2022-12-11T04:51:07;-0.70;1.00
5286;DHT22;2665;53.112;7.358;2022-12-11T04:53:33;-0.60;1.00
5286;DHT22;2665;53.112;7.358;2022-12-11T04:55:59;-0.60;1.00
5286;DHT22;2665;53.112;7.358;2022-12-11T04:58:25;-0.60;1.00
5286;DHT22;2665;53.112;7.358;2022-12-11T05:00:51;-0.60;1.00
5286;DHT22;2665;53.112;7.358;2022-12-11T05:03:17;-0.60;1.00
5286;DHT22;2665;53.112;7.358;2022-12-11T05:05:48;-0.50;1.00
5286;DHT22;2665;53.112;7.358;2022-12-11T05:08:15;-0.50;99.90
5286;DHT22;2665;53.112;7.358;2022-12-11T05:10:41;-0.50;99.90
5286;DHT22;2665;53.112;7.358;2022-12-11T05:13:06;-0.50;99.90
5286;DHT22;2665;53.112;7.358;2022-12-11T05:15:32;-0.50;99.90
5286;DHT22;2665;53.112;7.358;2022-12-11T05:17:58;-0.50;99.90
5286;DHT22;2665;53.112;7.358;2022-12-11T05:20:23;-0.60;99.90
5286;DHT22;2665;53.112;7.358;2022-12-11T05:22:49;-0.50;99.90
5286;DHT22;2665;53.112;7.358;2022-12-11T05:25:14;-0.50;99.90
5286;DHT22;2665;53.112;7.358;2022-12-11T05:27:40;-0.50;99.90
5286;DHT22;2665;53.112;7.358;2022-12-11T05:30:06;-0.50;99.90
5286;DHT22;2665;53.112;7.358;2022-12-11T05:32:32;-0.50;99.90
5286;DHT22;2665;53.112;7.358;2022-12-11T05:34:57;-0.40;99.90
5286;DHT22;2665;53.112;7.358;2022-12-11T05:37:23;-0.40;99.90
5286;DHT22;2665;53.112;7.358;2022-12-11T05:39:48;-0.40;99.90
5286;DHT22;2665;53.112;7.358;2022-12-11T05:42:14;-0.40;99.90
5286;DHT22;2665;53.112;7.358;2022-12-11T05:44:39;-0.40;99.90
5286;DHT22;2665;53.112;7.358;2022-12-11T05:47:05;-0.40;99.90
5286;DHT22;2665;53.112;7.358;2022-12-11T05:49:30;-0.40;99.90
5286;DHT22;2665;53.112;7.358;2022-12-11T05:51:56;-0.40;99.90
5286;DHT22;2665;53.112;7.358;2022-12-11T05:54:22;-0.40;99.90
5286;DHT22;2665;53.112;7.358;2022-12-11T05:56:48;-0.50;99.90
5286;DHT22;2665;53.112;7.358;2022-12-11T05:59:14;-0.40;99.90
5286;DHT22;2665;53.112;7.358;2022-12-11T06:01:41;-0.40;99.90
5286;DHT22;2665;53.112;7.358;2022-12-11T06:04:09;-0.40;99.90
5286;DHT22;2665;53.112;7.358;2022-12-11T06:06:35;-0.40;99.90
5286;DHT22;2665;53.112;7.358;2022-12-11T06:09:02;-0.40;99.90
5286;DHT22;2665;53.112;7.358;2022-12-11T06:11:29;-0.40;99.90
5286;DHT22;2665;53.112;7.358;2022-12-11T06:13:55;-0.40;99.90
5286;DHT22;2665;53.112;7.358;2022-12-11T06:16:22;-0.40;99.90
5286;DHT22;2665;53.112;7.358;2022-12-11T06:18:48;-0.40;99.90
5286;DHT22;2665;53.112;7.358;2022-12-11T06:21:16;-0.40;99.90
5286;DHT22;2665;53.112;7.358;2022-12-11T06:23:43;-0.40;99.90
5286;DHT22;2665;53.112;7.358;2022-12-11T06:26:09;-0.40;99.90
5286;DHT22;2665;53.112;7.358;2022-12-11T06:28:35;-0.40;99.90
5286;DHT22;2665;53.112;7.358;2022-12-11T06:31:01;-0.40;99.90
5286;DHT22;2665;53.112;7.358;2022-12-11T06:33:27;-0.40;99.90
5286;DHT22;2665;53.112;7.358;2022-12-11T06:35:52;-0.40;99.90
5286;DHT22;2665;53.112;7.358;2022-12-11T06:38:18;-0.40;99.90
5286;DHT22;2665;53.112;7.358;2022-12-11T06:40:44;-0.40;99.90
5286;DHT22;2665;53.112;7.358;2022-12-11T06:43:09;-0.40;99.90
5286;DHT22;2665;53.112;7.358;2022-12-11T06:45:38;-0.40;99.90
5286;DHT22;2665;53.112;7.358;2022-12-11T06:48:04;-0.40;99.90
5286;DHT22;2665;53.112;7.358;2022-12-11T06:50:29;-0.40;99.90
5286;DHT22;2665;53.112;7.358;2022-12-11T06:52:55;-0.40;99.90
5286;DHT22;2665;53.112;7.358;2022-12-11T06:55:21;-0.40;99.90
5286;DHT22;2665;53.112;7.358;2022-12-11T06:57:47;-0.40;99.90
5286;DHT22;2665;53.112;7.358;2022-12-11T07:00:13;-0.40;99.90
5286;DHT22;2665;53.112;7.358;2022-12-11T07:02:39;-0.40;99.90
5286;DHT22;2665;53.112;7.358;2022-12-11T07:05:05;-0.40;99.90
5286;DHT22;2665;53.112;7.358;2022-12-11T07:07:31;-0.40;99.90
5286;DHT22;2665;53.112;7.358;2022-12-11T07:09:56;-0.40;99.90
5286;DHT22;2665;53.112;7.358;2022-12-11T07:12:22;-0.40;99.90
5286;DHT22;2665;53.112;7.358;2022-12-11T07:14:47;-0.40;99.90
5286;DHT22;2665;53.112;7.358;2022-12-11T07:17:13;-0.40;99.90
5286;DHT22;2665;53.112;7.358;2022-12-11T07:19:39;-0.40;99.90
5286;DHT22;2665;53.112;7.358;2022-12-11T07:22:05;-0.40;99.90
5286;DHT22;2665;53.112;7.358;2022-12-11T07:24:30;-0.40;99.90
5286;DHT22;2665;53.112;7.358;2022-12-11T07:26:56;-0.40;99.90
5286;DHT22;2665;53.112;7.358;2022-12-11T07:29:22;-0.40;99.90
5286;DHT22;2665;53.112;7.358;2022-12-11T07:31:48;-0.40;99.90
5286;DHT22;2665;53.112;7.358;2022-12-11T07:34:13;-0.40;99.90
5286;DHT22;2665;53.112;7.358;2022-12-11T07:36:39;-0.40;99.90
5286;DHT22;2665;53.112;7.358;2022-12-11T07:39:05;-0.30;99.90
5286;DHT22;2665;53.112;7.358;2022-12-11T07:41:31;-0.30;99.90
5286;DHT22;2665;53.112;7.358;2022-12-11T07:43:58;-0.30;99.90
5286;DHT22;2665;53.112;7.358;2022-12-11T07:46:27;-0.30;99.90
5286;DHT22;2665;53.112;7.358;2022-12-11T07:48:53;-0.30;99.90
5286;DHT22;2665;53.112;7.358;2022-12-11T07:51:19;-0.30;99.90
5286;DHT22;2665;53.112;7.358;2022-12-11T07:53:48;-0.30;99.90
5286;DHT22;2665;53.112;7.358;2022-12-11T07:56:15;-0.30;99.90
5286;DHT22;2665;53.112;7.358;2022-12-11T07:58:41;-0.20;99.90
5286;DHT22;2665;53.112;7.358;2022-12-11T08:01:11;-0.20;99.90
5286;DHT22;2665;53.112;7.358;2022-12-11T08:03:38;-0.20;99.90
5286;DHT22;2665;53.112;7.358;2022-12-11T08:06:04;-0.20;99.90
5286;DHT22;2665;53.112;7.358;2022-12-11T08:08:31;-0.20;99.90
5286;DHT22;2665;53.112;7.358;2022-12-11T08:11:02;-0.20;99.90
5286;DHT22;2665;53.112;7.358;2022-12-11T08:13:28;-0.20;99.90
5286;DHT22;2665;53.112;7.358;2022-12-11T08:15:53;-0.20;99.90
5286;DHT22;2665;53.112;7.358;2022-12-11T08:18:19;-0.20;99.90
5286;DHT22;2665;53.112;7.358;2022-12-11T08:20:44;-0.20;99.90
5286;DHT22;2665;53.112;7.358;2022-12-11T08:23:10;-0.20;99.90
5286;DHT22;2665;53.112;7.358;2022-12-11T08:25:36;-0.20;99.90
5286;DHT22;2665;53.112;7.358;2022-12-11T08:28:02;-0.20;99.90
5286;DHT22;2665;53.112;7.358;2022-12-11T08:30:27;-0.20;99.90
5286;DHT22;2665;53.112;7.358;2022-12-11T08:32:53;-0.20;99.90
5286;DHT22;2665;53.112;7.358;2022-12-11T08:35:18;-0.20;99.90
5286;DHT22;2665;53.112;7.358;2022-12-11T08:37:44;-0.20;99.90
5286;DHT22;2665;53.112;7.358;2022-12-11T08:40:10;-0.10;99.90
5286;DHT22;2665;53.112;7.358;2022-12-11T08:42:36;-0.20;99.90
5286;DHT22;2665;53.112;7.358;2022-12-11T08:45:03;-0.20;99.90
5286;DHT22;2665;53.112;7.358;2022-12-11T08:47:28;-0.20;99.90
5286;DHT22;2665;53.112;7.358;2022-12-11T08:49:54;-0.20;99.90
5286;DHT22;2665;53.112;7.358;2022-12-11T08:52:20;-0.10;99.90
5286;DHT22;2665;53.112;7.358;2022-12-11T08:54:46;-0.10;99.90
5286;DHT22;2665;53.112;7.358;2022-12-11T08:57:12;-0.10;99.90
5286;DHT22;2665;53.112;7.358;2022-12-11T08:59:39;-0.10;99.90
5286;DHT22;2665;53.112;7.358;2022-12-11T09:02:05;-0.10;99.90
5286;DHT22;2665;53.112;7.358;2022-12-11T09:04:31;-0.10;99.90
5286;DHT22;2665;53.112;7.358;2022-12-11T09:06:56;-0.10;91.50
5286;DHT22;2665;53.112;7.358;2022-12-11T09:09:22;-0.10;44.70
5286;DHT22;2665;53.112;7.358;2022-12-11T09:11:47;-0.10;42.90
5286;DHT22;2665;53.112;7.358;2022-12-11T09:14:14;-0.10;37.10
5286;DHT22;2665;53.112;7.358;2022-12-11T09:16:41;0.00;1.00
5286;DHT22;2665;53.112;7.358;2022-12-11T09:19:09;0.00;1.00
5286;DHT22;2665;53.112;7.358;2022-12-11T09:21:35;0.00;1.00
5286;DHT22;2665;53.112;7.358;2022-12-11T09:24:02;0.00;1.00
5286;DHT22;2665;53.112;7.358;2022-12-11T09:26:28;0.00;1.00
5286;DHT22;2665;53.112;7.358;2022-12-11T09:28:54;0.00;1.00
5286;DHT22;2665;53.112;7.358;2022-12-11T09:31:27;0.00;1.00
5286;DHT22;2665;53.112;7.358;2022-12-11T09:33:56;0.00;1.00
5286;DHT22;2665;53.112;7.358;2022-12-11T09:36:23;0.00;1.00
5286;DHT22;2665;53.112;7.358;2022-12-11T09:38:48;0.00;1.00
5286;DHT22;2665;53.112;7.358;2022-12-11T09:46:31;0.10;99.90
5286;DHT22;2665;53.112;7.358;2022-12-11T09:48:58;0.10;1.00
5286;DHT22;2665;53.112;7.358;2022-12-11T09:51:44;0.10;1.00
5286;DHT22;2665;53.112;7.358;2022-12-11T09:54:12;0.20;1.00
5286;DHT22;2665;53.112;7.358;2022-12-11T10:05:19;0.20;99.90
5286;DHT22;2665;53.112;7.358;2022-12-11T10:07:55;0.20;99.90
5286;DHT22;2665;53.112;7.358;2022-12-11T10:10:42;0.30;99.90
5286;DHT22;2665;53.112;7.358;2022-12-11T10:18:38;0.30;1.00
5286;DHT22;2665;53.112;7.358;2022-12-11T10:21:05;0.30;1.00
5286;DHT22;2665;53.112;7.358;2022-12-11T10:23:46;0.30;35.40
5286;DHT22;2665;53.112;7.358;2022-12-11T10:26:17;0.30;33.80
5286;DHT22;2665;53.112;7.358;2022-12-11T10:28:43;0.40;1.00
5286;DHT22;2665;53.112;7.358;2022-12-11T10:31:18;0.40;1.00
5286;DHT22;2665;53.112;7.358;2022-12-11T10:36:30;0.40;1.00
5286;DHT22;2665;53.112;7.358;2022-12-11T10:38:57;0.40;99.90
5286;DHT22;2665;53.112;7.358;2022-12-11T10:41:46;0.30;1.00
5286;DHT22;2665;53.112;7.358;2022-12-11T10:44:15;0.40;1.00
5286;DHT22;2665;53.112;7.358;2022-12-11T10:46:42;0.40;1.00
5286;DHT22;2665;53.112;7.358;2022-12-11T10:49:21;0.30;1.00
5286;DHT22;2665;53.112;7.358;2022-12-11T10:51:47;0.40;1.00
5286;DHT22;2665;53.112;7.358;2022-12-11T10:54:37;0.40;1.00
5286;DHT22;2665;53.112;7.358;2022-12-11T10:57:05;0.40;1.00
5286;DHT22;2665;53.112;7.358;2022-12-11T10:59:48;0.40;99.90
5286;DHT22;2665;53.112;7.358;2022-12-11T11:02:23;0.40;1.00
5286;DHT22;2665;53.112;7.358;2022-12-11T11:04:50;0.40;1.00
5286;DHT22;2665;53.112;7.358;2022-12-11T11:07:29;0.50;99.90
5286;DHT22;2665;53.112;7.358;2022-12-11T11:12:44;0.50;99.90
5286;DHT22;2665;53.112;7.358;2022-12-11T11:15:24;0.50;1.00
5286;DHT22;2665;53.112;7.358;2022-12-11T11:17:53;0.50;1.00
5286;DHT22;2665;53.112;7.358;2022-12-11T11:20:22;0.50;1.00
5286;DHT22;2665;53.112;7.358;2022-12-11T11:22:53;0.50;1.00
5286;DHT22;2665;53.112;7.358;2022-12-11T11:25:21;0.50;99.90
5286;DHT22;2665;53.112;7.358;2022-12-11T11:28:05;0.50;1.00
5286;DHT22;2665;53.112;7.358;2022-12-11T11:30:36;0.50;99.90
5286;DHT22;2665;53.112;7.358;2022-12-11T11:33:09;0.50;99.90
5286;DHT22;2665;53.112;7.358;2022-12-11T11:35:36;0.50;1.00
5286;DHT22;2665;53.112;7.358;2022-12-11T11:40:34;0.50;1.00
5286;DHT22;2665;53.112;7.358;2022-12-11T11:43:17;0.50;1.00
5286;DHT22;2665;53.112;7.358;2022-12-11T11:46:25;0.50;1.00
5286;DHT22;2665;53.112;7.358;2022-12-11T11:51:38;0.50;1.00
5286;DHT22;2665;53.112;7.358;2022-12-11T11:54:21;0.50;1.00
5286;DHT22;2665;53.112;7.358;2022-12-11T11:56:50;0.50;1.00
5286;DHT22;2665;53.112;7.358;2022-12-11T12:01:55;0.50;99.90
5286;DHT22;2665;53.112;7.358;2022-12-11T12:04:21;0.50;99.90
5286;DHT22;2665;53.112;7.358;2022-12-11T12:07:09;0.50;99.90
5286;DHT22;2665;53.112;7.358;2022-12-11T12:10:06;0.50;99.90
5286;DHT22;2665;53.112;7.358;2022-12-11T12:12:48;0.50;99.90
5286;DHT22;2665;53.112;7.358;2022-12-11T12:18:21;0.50;99.90
5286;DHT22;2665;53.112;7.358;2022-12-11T12:26:16;0.50;99.90
5286;DHT22;2665;53.112;7.358;2022-12-11T12:36:35;0.50;1.00
5286;DHT22;2665;53.112;7.358;2022-12-11T12:39:16;0.50;1.00
5286;DHT22;2665;53.112;7.358;2022-12-11T12:41:57;0.50;99.90
5286;DHT22;2665;53.112;7.358;2022-12-11T12:44:26;0.50;99.90
5286;DHT22;2665;53.112;7.358;2022-12-11T12:47:13;0.40;99.90
5286;DHT22;2665;53.112;7.358;2022-12-11T12:49:47;0.40;99.90
5286;DHT22;2665;53.112;7.358;2022-12-11T12:52:35;0.40;99.90
5286;DHT22;2665;53.112;7.358;2022-12-11T12:55:21;0.50;99.90
5286;DHT22;2665;53.112;7.358;2022-12-11T12:57:54;0.40;99.90
5286;DHT22;2665;53.112;7.358;2022-12-11T13:00:39;0.40;99.90
5286;DHT22;2665;53.112;7.358;2022-12-11T13:03:17;0.40;99.90
5286;DHT22;2665;53.112;7.358;2022-12-11T13:05:54;0.40;99.90
5286;DHT22;2665;53.112;7.358;2022-12-11T13:08:25;0.30;99.90
5286;DHT22;2665;53.112;7.358;2022-12-11T13:11:00;0.40;99.90
5286;DHT22;2665;53.112;7.358;2022-12-11T13:13:38;0.40;99.90
5286;DHT22;2665;53.112;7.358;2022-12-11T13:16:23;0.40;99.90
5286;DHT22;2665;53.112;7.358;2022-12-11T13:18:50;0.40;99.90
5286;DHT22;2665;53.112;7.358;2022-12-11T13:21:34;0.40;1.00
5286;DHT22;2665;53.112;7.358;2022-12-11T13:24:14;0.50;1.00
5286;DHT22;2665;53.112;7.358;2022-12-11T13:26:41;0.40;99.90
5286;DHT22;2665;53.112;7.358;2022-12-11T13:29:34;0.40;1.00
5286;DHT22;2665;53.112;7.358;2022-12-11T13:32:53;0.40;1.00
5286;DHT22;2665;53.112;7.358;2022-12-11T13:34:54;0.40;1.00
5286;DHT22;2665;53.112;7.358;2022-12-11T13:37:26;0.40;1.00
5286;DHT22;2665;53.112;7.358;2022-12-11T13:39:54;0.40;1.00
5286;DHT22;2665;53.112;7.358;2022-12-11T13:42:41;0.40;1.00
5286;DHT22;2665;53.112;7.358;2022-12-11T13:45:18;0.40;1.00
5286;DHT22;2665;53.112;7.358;2022-12-11T13:47:46;0.40;1.00
5286;DHT22;2665;53.112;7.358;2022-12-11T13:50:33;0.40;1.00
5286;DHT22;2665;53.112;7.358;2022-12-11T13:53:00;0.40;1.00
5286;DHT22;2665;53.112;7.358;2022-12-11T13:55:32;0.40;1.00
5286;DHT22;2665;53.112;7.358;2022-12-11T13:57:58;0.40;1.00
5286;DHT22;2665;53.112;7.358;2022-12-11T14:00:29;0.40;1.00
5286;DHT22;2665;53.112;7.358;2022-12-11T14:02:58;0.40;1.00
5286;DHT22;2665;53.112;7.358;2022-12-11T14:05:26;0.40;1.00
5286;DHT22;2665;53.112;7.358;2022-12-11T14:07:55;0.40;1.00
5286;DHT22;2665;53.112;7.358;2022-12-11T14:10:26;0.40;1.00
5286;DHT22;2665;53.112;7.358;2022-12-11T14:15:29;0.40;1.00
5286;DHT22;2665;53.112;7.358;2022-12-11T14:17:56;0.30;1.00
5286;DHT22;2665;53.112;7.358;2022-12-11T14:20:25;0.30;1.00
5286;DHT22;2665;53.112;7.358;2022-12-11T14:23:06;0.40;1.00
5286;DHT22;2665;53.112;7.358;2022-12-11T14:25:32;0.40;1.00
5286;DHT22;2665;53.112;7.358;2022-12-11T14:27:58;0.30;99.90
5286;DHT22;2665;53.112;7.358;2022-12-11T14:30:28;0.40;99.90
5286;DHT22;2665;53.112;7.358;2022-12-11T14:32:57;0.40;99.90
5286;DHT22;2665;53.112;7.358;2022-12-11T14:37:51;0.40;99.90
5286;DHT22;2665;53.112;7.358;2022-12-11T14:40:19;0.40;99.90
5286;DHT22;2665;53.112;7.358;2022-12-11T14:42:49;0.30;99.90
5286;DHT22;2665;53.112;7.358;2022-12-11T14:45:39;0.30;1.00
5286;DHT22;2665;53.112;7.358;2022-12-11T14:48:16;0.30;99.90
5286;DHT22;2665;53.112;7.358;2022-12-11T14:50:51;0.30;99.90
5286;DHT22;2665;53.112;7.358;2022-12-11T14:53:24;0.30;99.90
5286;DHT22;2665;53.112;7.358;2022-12-11T14:55:50;0.30;1.00
5286;DHT22;2665;53.112;7.358;2022-12-11T14:58:20;0.30;99.90
5286;DHT22;2665;53.112;7.358;2022-12-11T15:01:00;0.20;99.90
5286;DHT22;2665;53.112;7.358;2022-12-11T15:03:35;0.20;99.90
5286;DHT22;2665;53.112;7.358;2022-12-11T15:06:02;0.20;99.90
5286;DHT22;2665;53.112;7.358;2022-12-11T15:08:45;0.20;1.00
5286;DHT22;2665;53.112;7.358;2022-12-11T15:11:13;0.20;99.90
5286;DHT22;2665;53.112;7.358;2022-12-11T15:13:53;0.20;1.00
5286;DHT22;2665;53.112;7.358;2022-12-11T15:16:20;0.20;99.90
5286;DHT22;2665;53.112;7.358;2022-12-11T15:18:51;0.20;1.00
5286;DHT22;2665;53.112;7.358;2022-12-11T15:21:18;0.20;1.00
5286;DHT22;2665;53.112;7.358;2022-12-11T15:26:12;0.20;1.00
5286;DHT22;2665;53.112;7.358;2022-12-11T15:28:38;0.20;1.00
5286;DHT22;2665;53.112;7.358;2022-12-11T15:31:06;0.20;99.90
5286;DHT22;2665;53.112;7.358;2022-12-11T15:33:32;0.20;99.90
5286;DHT22;2665;53.112;7.358;2022-12-11T15:36:29;0.20;1.00
5286;DHT22;2665;53.112;7.358;2022-12-11T15:38:56;0.20;99.90
5286;DHT22;2665;53.112;7.358;2022-12-11T15:41:22;0.20;99.90
5286;DHT22;2665;53.112;7.358;2022-12-11T15:43:52;0.20;1.00
5286;DHT22;2665;53.112;7.358;2022-12-11T15:46:19;0.10;1.00
5286;DHT22;2665;53.112;7.358;2022-12-11T15:48:47;0.10;1.00
5286;DHT22;2665;53.112;7.358;2022-12-11T15:51:13;0.20;1.00
5286;DHT22;2665;53.112;7.358;2022-12-11T15:53:38;0.10;1.00
5286;DHT22;2665;53.112;7.358;2022-12-11T15:56:04;0.10;1.00
5286;DHT22;2665;53.112;7.358;2022-12-11T15:58:30;0.10;1.00
5286;DHT22;2665;53.112;7.358;2022-12-11T16:00:56;0.10;1.00
5286;DHT22;2665;53.112;7.358;2022-12-11T16:03:23;0.10;1.00
5286;DHT22;2665;53.112;7.358;2022-12-11T16:05:50;0.10;99.90
5286;DHT22;2665;53.112;7.358;2022-12-11T16:08:18;0.10;99.90
5286;DHT22;2665;53.112;7.358;2022-12-11T16:10:45;0.10;15.40
5286;DHT22;2665;53.112;7.358;2022-12-11T16:13:12;0.10;99.90
5286;DHT22;2665;53.112;7.358;2022-12-11T16:15:42;0.10;99.90
5286;DHT22;2665;53.112;7.358;2022-12-11T16:18:11;0.10;99.90
5286;DHT22;2665;53.112;7.358;2022-12-11T16:20:38;0.10;99.90
5286;DHT22;2665;53.112;7.358;2022-12-11T16:23:05;0.10;99.90
5286;DHT22;2665;53.112;7.358;2022-12-11T16:25:32;0.10;99.90
5286;DHT22;2665;53.112;7.358;2022-12-11T16:27:59;0.10;99.90
5286;DHT22;2665;53.112;7.358;2022-12-11T16:30:26;0.10;99.90
5286;DHT22;2665;53.112;7.358;2022-12-11T16:32:51;0.10;99.90
5286;DHT22;2665;53.112;7.358;2022-12-11T16:35:18;0.10;99.90
5286;DHT22;2665;53.112;7.358;2022-12-11T16:37:44;0.10;99.90
5286;DHT22;2665;53.112;7.358;2022-12-11T16:40:10;0.10;99.90
5286;DHT22;2665;53.112;7.358;2022-12-11T16:42:37;0.10;99.90
5286;DHT22;2665;53.112;7.358;2022-12-11T16:45:08;0.10;99.90
5286;DHT22;2665;53.112;7.358;2022-12-11T16:47:35;0.10;99.90
5286;DHT22;2665;53.112;7.358;2022-12-11T16:50:01;0.10;28.30
5286;DHT22;2665;53.112;7.358;2022-12-11T16:52:27;0.10;99.90
5286;DHT22;2665;53.112;7.358;2022-12-11T16:54:53;0.10;99.90
5286;DHT22;2665;53.112;7.358;2022-12-11T16:57:19;0.10;99.90
5286;DHT22;2665;53.112;7.358;2022-12-11T16:59:46;0.10;99.90
5286;DHT22;2665;53.112;7.358;2022-12-11T17:02:12;0.10;99.90
5286;DHT22;2665;53.112;7.358;2022-12-11T17:04:38;0.10;99.90
5286;DHT22;2665;53.112;7.358;2022-12-11T17:07:04;0.10;99.90
5286;DHT22;2665;53.112;7.358;2022-12-11T17:09:30;0.10;99.90
5286;DHT22;2665;53.112;7.358;2022-12-11T17:11:55;0.10;99.90
5286;DHT22;2665;53.112;7.358;2022-12-11T17:14:21;0.10;99.90
5286;DHT22;2665;53.112;7.358;2022-12-11T17:16:47;0.10;99.90
5286;DHT22;2665;53.112;7.358;2022-12-11T17:19:13;0.10;99.90
5286;DHT22;2665;53.112;7.358;2022-12-11T17:21:38;0.10;99.90
5286;DHT22;2665;53.112;7.358;2022-12-11T17:24:05;0.10;99.90
5286;DHT22;2665;53.112;7.358;2022-12-11T17:26:31;0.10;99.90
5286;DHT22;2665;53.112;7.358;2022-12-11T17:28:57;0.10;99.90
5286;DHT22;2665;53.112;7.358;2022-12-11T17:31:23;0.20;99.90
5286;DHT22;2665;53.112;7.358;2022-12-11T17:33:48;0.10;99.90
5286;DHT22;2665;53.112;7.358;2022-12-11T17:36:17;0.20;99.90
5286;DHT22;2665;53.112;7.358;2022-12-11T17:38:46;0.10;99.90